createdAt,value
2024-03-10T00:01:08.379Z,0.53
2024-03-10T00:03:36.869Z,0.50
2024-03-10T00:06:05.182Z,0.46
2024-03-10T00:08:33.644Z,0.46
2024-03-10T00:11:01.576Z,0.45
2024-03-10T00:13:29.463Z,0.46
2024-03-10T00:15:59.542Z,0.45
2024-03-10T00:18:28.003Z,0.43
2024-03-10T00:20:56.044Z,0.43
2024-03-10T00:23:25.274Z,0.42
2024-03-10T00:25:53.140Z,0.40
2024-03-10T00:28:21.193Z,0.38
2024-03-10T00:30:49.669Z,0.36
2024-03-10T00:33:19.018Z,0.35
2024-03-10T00:35:48.078Z,0.29
2024-03-10T00:38:16.017Z,0.25
2024-03-10T00:40:43.923Z,0.23
2024-03-10T00:43:11.993Z,0.19
2024-03-10T00:45:40.235Z,0.16
2024-03-10T00:48:08.571Z,0.11
2024-03-10T00:50:37.845Z,0.07
2024-03-10T00:53:06.662Z,0.07
2024-03-10T00:55:34.512Z,0.05
2024-03-10T00:58:02.451Z,0.04
2024-03-10T01:00:30.814Z,0.04
2024-03-10T01:02:58.662Z,0.02
2024-03-10T01:05:26.769Z,0.00
2024-03-10T01:07:56.056Z,-0.04
2024-03-10T01:10:24.270Z,-0.10
2024-03-10T01:12:52.054Z,-0.15
2024-03-10T01:15:20.306Z,-0.17
2024-03-10T01:17:48.131Z,-0.20
2024-03-10T01:20:16.059Z,-0.23
2024-03-10T01:22:45.918Z,-0.27
2024-03-10T01:25:15.151Z,-0.29
2024-03-10T01:27:44.676Z,-0.31
2024-03-10T01:30:13.773Z,-0.29
2024-03-10T01:32:41.808Z,-0.27
2024-03-10T01:35:10.472Z,-0.28
2024-03-10T01:37:39.116Z,-0.26
2024-03-10T01:40:08.388Z,-0.27
2024-03-10T01:42:37.601Z,-0.28
2024-03-10T01:45:06.220Z,-0.29
2024-03-10T01:47:34.726Z,-0.32
2024-03-10T01:50:03.292Z,-0.34
2024-03-10T01:52:32.765Z,-0.34
2024-03-10T01:55:02.617Z,-0.36
2024-03-10T01:57:31.534Z,-0.39
2024-03-10T02:00:03.409Z,-0.41
2024-03-10T02:02:41.535Z,-0.44
2024-03-10T02:05:10.374Z,-0.46
2024-03-10T02:07:38.273Z,-0.48
2024-03-10T02:10:08.384Z,-0.48
2024-03-10T02:12:36.894Z,-0.51
2024-03-10T02:15:07.875Z,-0.51
2024-03-10T02:17:37.536Z,-0.51
2024-03-10T02:20:15.663Z,-0.50
2024-03-10T02:22:44.990Z,-0.52
2024-03-10T02:25:14.229Z,-0.54
2024-03-10T02:27:45.903Z,-0.56
2024-03-10T02:30:20.568Z,-0.58
2024-03-10T02:33:06.260Z,-0.59
2024-03-10T02:35:52.138Z,-0.62
2024-03-10T02:38:37.556Z,-0.67
2024-03-10T02:41:22.882Z,-0.71
2024-03-10T02:44:18.182Z,-0.74
2024-03-10T02:47:04.065Z,-0.76
2024-03-10T02:49:31.998Z,-0.78
2024-03-10T02:51:59.788Z,-0.78
2024-03-10T02:54:27.629Z,-0.82
2024-03-10T02:56:55.884Z,-0.84
2024-03-10T02:59:25.936Z,-0.85
2024-03-10T03:01:53.899Z,-0.89
2024-03-10T03:04:22.574Z,-0.89
2024-03-10T03:06:50.374Z,-0.90
2024-03-10T03:09:17.244Z,-0.92
2024-03-10T03:11:45.171Z,-0.92
2024-03-10T03:14:14.446Z,-0.93
2024-03-10T03:16:44.499Z,-0.94
2024-03-10T03:19:14.329Z,-0.93
2024-03-10T03:21:42.299Z,-0.96
2024-03-10T03:24:10.421Z,-0.95
2024-03-10T03:26:38.691Z,-0.95
2024-03-10T03:29:08.144Z,-0.94
2024-03-10T03:31:35.977Z,-0.93
2024-03-10T03:34:05.188Z,-0.91
2024-03-10T03:36:33.905Z,-0.89
2024-03-10T03:39:01.736Z,-0.88
2024-03-10T03:41:29.572Z,-0.88
2024-03-10T03:43:57.440Z,-0.89
2024-03-10T03:46:25.275Z,-0.93
2024-03-10T03:48:53.137Z,-0.96
2024-03-10T03:51:22.310Z,-0.98
2024-03-10T03:53:50.171Z,-1.00
2024-03-10T03:56:18.146Z,-1.03
2024-03-10T03:58:46.060Z,-1.05
2024-03-10T04:01:14.048Z,-1.08
2024-03-10T04:03:43.688Z,-1.09
2024-03-10T04:06:11.497Z,-1.11
2024-03-10T04:08:40.809Z,-1.13
2024-03-10T04:11:08.726Z,-1.13
2024-03-10T04:13:36.618Z,-1.13
2024-03-10T04:16:06.925Z,-1.14
2024-03-10T04:18:35.742Z,-1.16
2024-03-10T04:21:05.531Z,-1.18
2024-03-10T04:23:33.470Z,-1.20
2024-03-10T04:26:03.739Z,-1.22
2024-03-10T04:28:31.589Z,-1.22
2024-03-10T04:30:59.630Z,-1.21
2024-03-10T04:33:27.624Z,-1.21
2024-03-10T04:35:55.486Z,-1.20
2024-03-10T04:38:24.825Z,-1.19
2024-03-10T04:40:52.758Z,-1.18
2024-03-10T04:43:23.702Z,-1.23
2024-03-10T04:45:52.410Z,-1.24
2024-03-10T04:48:20.291Z,-1.26
2024-03-10T04:50:48.085Z,-1.25
2024-03-10T04:53:16.055Z,-1.24
2024-03-10T04:55:45.102Z,-1.22
2024-03-10T04:58:13.265Z,-1.21
2024-03-10T05:00:42.458Z,-1.22
2024-03-10T05:03:11.464Z,-1.24
2024-03-10T05:05:39.808Z,-1.27
2024-03-10T05:08:09.586Z,-1.29
2024-03-10T05:10:37.436Z,-1.30
2024-03-10T05:13:05.852Z,-1.31
2024-03-10T05:15:33.665Z,-1.30
2024-03-10T05:18:03.008Z,-1.30
2024-03-10T05:20:30.978Z,-1.30
2024-03-10T05:22:58.904Z,-1.27
2024-03-10T05:25:26.775Z,-1.26
2024-03-10T05:27:54.591Z,-1.27
2024-03-10T05:30:23.066Z,-1.28
2024-03-10T05:32:51.346Z,-1.29
2024-03-10T05:35:21.366Z,-1.29
2024-03-10T05:37:49.518Z,-1.29
2024-03-10T05:40:17.479Z,-1.27
2024-03-10T05:42:45.304Z,-1.28
2024-03-10T05:45:13.140Z,-1.29
2024-03-10T05:47:41.036Z,-1.31
2024-03-10T05:50:09.327Z,-1.30
2024-03-10T05:52:38.519Z,-1.32
2024-03-10T05:55:08.342Z,-1.31
2024-03-10T05:57:36.629Z,-1.30
2024-03-10T06:00:07.218Z,-1.28
2024-03-10T06:02:39.400Z,-1.28
2024-03-10T06:05:07.723Z,-1.25
2024-03-10T06:07:35.509Z,-1.23
2024-03-10T06:10:06.960Z,-1.19
2024-03-10T06:12:34.900Z,-1.16
2024-03-10T06:15:02.721Z,-1.13
2024-03-10T06:17:34.740Z,-1.09
2024-03-10T06:20:20.198Z,-1.03
2024-03-10T06:23:05.474Z,-0.96
2024-03-10T06:25:34.625Z,-0.90
2024-03-10T06:28:02.464Z,-0.84
2024-03-10T06:30:30.287Z,-0.76
2024-03-10T06:32:58.891Z,-0.69
2024-03-10T06:35:26.875Z,-0.63
2024-03-10T06:37:54.913Z,-0.59
2024-03-10T06:40:23.581Z,-0.52
2024-03-10T06:42:53.285Z,-0.47
2024-03-10T06:45:21.791Z,-0.43
2024-03-10T06:47:49.701Z,-0.39
2024-03-10T06:50:17.730Z,-0.34
2024-03-10T06:52:47.631Z,-0.30
2024-03-10T06:55:16.782Z,-0.24
2024-03-10T06:57:44.946Z,-0.20
2024-03-10T07:00:16.124Z,-0.15
2024-03-10T07:02:47.119Z,-0.09
2024-03-10T07:05:16.836Z,-0.03
2024-03-10T07:07:45.065Z,0.03
2024-03-10T07:10:13.633Z,0.09
2024-03-10T07:12:41.652Z,0.15
2024-03-10T07:15:11.171Z,0.22
2024-03-10T07:17:42.505Z,0.27
2024-03-10T07:20:11.876Z,0.34
2024-03-10T07:22:42.856Z,0.40
2024-03-10T07:25:12.124Z,0.48
2024-03-10T07:27:40.813Z,0.53
2024-03-10T07:30:10.891Z,0.61
2024-03-10T07:32:40.686Z,0.67
2024-03-10T07:35:10.321Z,0.74
2024-03-10T07:37:38.433Z,0.82
2024-03-10T07:40:08.289Z,0.90
2024-03-10T07:42:36.120Z,0.99
2024-03-10T07:45:04.177Z,1.08
2024-03-10T07:47:32.576Z,1.17
2024-03-10T07:50:01.962Z,1.25
2024-03-10T07:52:31.281Z,1.33
2024-03-10T07:54:59.078Z,1.40
2024-03-10T07:57:26.922Z,1.49
2024-03-10T07:59:54.735Z,1.57
2024-03-10T08:02:22.689Z,1.63
2024-03-10T08:04:50.654Z,1.72
2024-03-10T08:07:20.050Z,1.82
2024-03-10T08:09:47.840Z,1.91
2024-03-10T08:12:15.794Z,2.00
2024-03-10T08:14:43.614Z,2.10
2024-03-10T08:17:11.588Z,2.18
2024-03-10T08:19:39.455Z,2.27
2024-03-10T08:22:07.710Z,2.35
2024-03-10T08:24:38.495Z,2.44
2024-03-10T08:27:09.319Z,2.56
2024-03-10T08:29:37.705Z,2.65
2024-03-10T08:32:07.297Z,2.74
2024-03-10T08:34:35.136Z,2.86
2024-03-10T08:37:04.096Z,2.97
2024-03-10T08:39:32.238Z,3.09
2024-03-10T08:42:01.374Z,3.21
2024-03-10T08:44:29.402Z,3.31
2024-03-10T08:46:57.331Z,3.42
2024-03-10T08:49:25.207Z,3.55
2024-03-10T08:51:53.056Z,3.67
2024-03-10T08:54:20.893Z,3.77
2024-03-10T08:56:49.950Z,3.90
2024-03-10T08:59:19.823Z,3.99
2024-03-10T09:01:47.824Z,4.08
2024-03-10T09:04:16.972Z,4.18
2024-03-10T09:06:45.804Z,4.26
2024-03-10T09:09:15.799Z,4.35
2024-03-10T09:11:43.661Z,4.46
2024-03-10T09:14:11.787Z,4.55
2024-03-10T09:16:40.964Z,4.63
2024-03-10T09:19:08.916Z,4.68
2024-03-10T09:21:37.416Z,4.75
2024-03-10T09:24:06.075Z,4.83
2024-03-10T09:26:33.997Z,4.90
2024-03-10T09:29:02.376Z,4.96
2024-03-10T09:31:31.624Z,5.03
2024-03-10T09:34:01.309Z,5.13
2024-03-10T09:36:29.603Z,5.18
2024-03-10T09:38:57.516Z,5.29
2024-03-10T09:41:27.329Z,5.37
2024-03-10T09:43:58.403Z,5.47
2024-03-10T09:46:26.501Z,5.59
2024-03-10T09:48:54.602Z,5.69
2024-03-10T09:51:23.908Z,5.79
2024-03-10T09:53:51.991Z,5.90
2024-03-10T09:56:22.651Z,5.98
2024-03-10T09:59:00.729Z,6.08
2024-03-10T10:01:30.811Z,6.20
2024-03-10T10:04:03.013Z,6.32
2024-03-10T10:06:34.009Z,6.43
2024-03-10T10:09:08.890Z,6.53
2024-03-10T10:11:36.904Z,6.66
2024-03-10T10:14:08.748Z,6.77
2024-03-10T10:16:45.828Z,6.87
2024-03-10T10:19:18.309Z,6.97
2024-03-10T10:21:48.384Z,7.06
2024-03-10T10:24:16.991Z,7.12
2024-03-10T10:26:59.846Z,7.23
2024-03-10T10:29:28.986Z,7.29
2024-03-10T10:31:58.107Z,7.36
2024-03-10T10:34:26.636Z,7.44
2024-03-10T10:36:57.361Z,7.54
2024-03-10T10:39:28.401Z,7.67
2024-03-10T10:42:01.782Z,7.80
2024-03-10T10:44:31.371Z,7.90
2024-03-10T10:47:02.091Z,8.00
2024-03-10T10:49:32.733Z,8.06
2024-03-10T10:52:03.318Z,8.12
2024-03-10T10:54:31.326Z,8.19
2024-03-10T10:57:01.456Z,8.26
2024-03-10T10:59:29.990Z,8.37
2024-03-10T11:01:58.185Z,8.47
2024-03-10T11:04:26.573Z,8.56
2024-03-10T11:06:57.977Z,8.64
2024-03-10T11:09:32.051Z,8.72
2024-03-10T11:12:01.136Z,8.81
2024-03-10T11:14:29.694Z,8.97
2024-03-10T11:17:14.355Z,9.17
2024-03-10T11:19:43.603Z,9.34
2024-03-10T11:22:12.114Z,9.50
2024-03-10T11:24:41.576Z,9.60
2024-03-10T11:27:13.662Z,9.66
2024-03-10T11:29:42.859Z,9.70
2024-03-10T11:32:36.651Z,9.66
2024-03-10T11:35:09.386Z,9.65
2024-03-10T11:37:38.567Z,9.62
2024-03-10T11:40:11.422Z,9.55
2024-03-10T11:42:39.671Z,9.54
2024-03-10T11:45:10.442Z,9.56
2024-03-10T11:47:38.524Z,9.59
2024-03-10T11:50:08.036Z,9.64
2024-03-10T11:52:35.988Z,9.67
2024-03-10T11:55:12.559Z,9.72
2024-03-10T11:57:42.849Z,9.75
2024-03-10T12:00:17.219Z,9.82
2024-03-10T12:02:46.023Z,9.84
2024-03-10T12:05:17.261Z,9.91
2024-03-10T12:07:48.077Z,10.02
2024-03-10T12:10:20.435Z,10.14
2024-03-10T12:12:53.463Z,10.30
2024-03-10T12:15:23.071Z,10.46
2024-03-10T12:17:51.555Z,10.60
2024-03-10T12:20:20.765Z,10.69
2024-03-10T12:22:49.656Z,10.79
2024-03-10T12:25:19.542Z,10.93
2024-03-10T12:27:49.171Z,11.04
2024-03-10T12:30:20.690Z,11.10
2024-03-10T12:32:52.174Z,11.12
2024-03-10T12:35:22.460Z,11.12
2024-03-10T12:37:51.054Z,11.12
2024-03-10T12:40:19.109Z,11.12
2024-03-10T12:42:48.424Z,11.15
2024-03-10T12:45:18.088Z,11.18
2024-03-10T12:47:47.045Z,11.21
2024-03-10T12:50:15.778Z,11.23
2024-03-10T12:52:43.938Z,11.23
2024-03-10T12:55:12.478Z,11.23
2024-03-10T12:57:41.453Z,11.22
2024-03-10T13:00:28.091Z,11.20
2024-03-10T13:03:00.190Z,11.18
2024-03-10T13:05:30.784Z,11.18
2024-03-10T13:08:01.768Z,11.19
2024-03-10T13:10:30.056Z,11.15
2024-03-10T13:12:58.236Z,11.12
2024-03-10T13:15:26.649Z,11.12
2024-03-10T13:17:55.185Z,11.13
2024-03-10T13:20:24.534Z,11.15
2024-03-10T13:22:52.578Z,11.17
2024-03-10T13:25:20.966Z,11.15
2024-03-10T13:27:49.001Z,11.18
2024-03-10T13:30:17.441Z,11.18
2024-03-10T13:32:46.348Z,11.17
2024-03-10T13:35:15.589Z,11.15
2024-03-10T13:37:47.455Z,11.13
2024-03-10T13:40:18.478Z,11.11
2024-03-10T13:42:47.280Z,11.11
2024-03-10T13:45:23.068Z,11.10
2024-03-10T13:48:00.951Z,11.10
2024-03-10T13:50:29.647Z,11.10
2024-03-10T13:52:59.436Z,11.10
2024-03-10T13:55:27.913Z,11.07
2024-03-10T13:57:56.117Z,11.06
2024-03-10T14:00:26.657Z,11.04
2024-03-10T14:02:56.242Z,11.01
2024-03-10T14:05:25.603Z,11.00
2024-03-10T14:07:53.970Z,10.98
2024-03-10T14:10:23.350Z,10.93
2024-03-10T14:12:51.300Z,10.91
2024-03-10T14:15:21.716Z,10.90
2024-03-10T14:17:49.737Z,10.90
2024-03-10T14:20:19.576Z,10.89
2024-03-10T14:22:49.826Z,10.89
2024-03-10T14:25:18.654Z,10.87
2024-03-10T14:27:50.880Z,10.84
2024-03-10T14:30:22.368Z,10.78
2024-03-10T14:32:54.312Z,10.72
2024-03-10T14:35:25.089Z,10.67
2024-03-10T14:37:53.850Z,10.64
2024-03-10T14:40:23.123Z,10.60
2024-03-10T14:42:55.084Z,10.57
2024-03-10T14:45:23.650Z,10.56
2024-03-10T14:47:52.313Z,10.50
2024-03-10T14:50:22.778Z,10.52
2024-03-10T14:52:53.497Z,10.55
2024-03-10T14:55:21.558Z,10.55
2024-03-10T14:57:49.399Z,10.55
2024-03-10T15:00:34.270Z,10.51
2024-03-10T15:03:03.241Z,10.47
2024-03-10T15:05:31.564Z,10.43
2024-03-10T15:07:59.765Z,10.44
2024-03-10T15:10:28.976Z,10.38
2024-03-10T15:12:57.134Z,10.35
2024-03-10T15:15:26.375Z,10.33
2024-03-10T15:18:02.074Z,10.29
2024-03-10T15:20:29.971Z,10.22
2024-03-10T15:23:00.151Z,10.16
2024-03-10T15:25:30.635Z,10.12
2024-03-10T15:27:59.012Z,10.10
2024-03-10T15:30:29.017Z,10.04
2024-03-10T15:32:57.076Z,10.01
2024-03-10T15:35:25.047Z,10.00
2024-03-10T15:37:53.493Z,9.96
2024-03-10T15:40:22.564Z,9.92
2024-03-10T15:42:50.983Z,9.88
2024-03-10T15:45:21.948Z,9.86
2024-03-10T15:47:55.300Z,9.83
2024-03-10T15:50:23.741Z,9.80
2024-03-10T15:52:53.008Z,9.78
2024-03-10T15:55:22.724Z,9.72
2024-03-10T15:57:51.786Z,9.69
2024-03-10T16:00:21.858Z,9.64
2024-03-10T16:02:55.134Z,9.61
2024-03-10T16:05:31.060Z,9.56
2024-03-10T16:07:59.729Z,9.52
2024-03-10T16:10:27.843Z,9.47
2024-03-10T16:12:56.079Z,9.45
2024-03-10T16:15:28.865Z,9.38
2024-03-10T16:17:58.994Z,9.32
2024-03-10T16:20:27.133Z,9.30
2024-03-10T16:22:56.916Z,9.25
2024-03-10T16:25:25.256Z,9.20
2024-03-10T16:27:53.329Z,9.16
2024-03-10T16:30:21.412Z,9.11
2024-03-10T16:32:51.298Z,9.05
2024-03-10T16:35:21.138Z,9.03
2024-03-10T16:37:50.767Z,8.99
2024-03-10T16:40:19.902Z,8.98
2024-03-10T16:42:47.817Z,8.96
2024-03-10T16:45:18.095Z,8.94
2024-03-10T16:47:47.725Z,8.93
2024-03-10T16:50:23.725Z,8.91
2024-03-10T16:52:52.728Z,8.90
2024-03-10T16:55:21.693Z,8.87
2024-03-10T16:57:49.577Z,8.84
2024-03-10T17:00:18.262Z,8.80
2024-03-10T17:02:47.217Z,8.76
2024-03-10T17:05:17.062Z,8.72
2024-03-10T17:07:46.499Z,8.68
2024-03-10T17:10:14.990Z,8.69
2024-03-10T17:12:43.014Z,8.66
2024-03-10T17:15:16.738Z,8.63
2024-03-10T17:17:45.637Z,8.61
2024-03-10T17:20:14.588Z,8.57
2024-03-10T17:22:43.009Z,8.56
2024-03-10T17:25:13.981Z,8.54
2024-03-10T17:27:42.758Z,8.53
2024-03-10T17:30:11.831Z,8.52
2024-03-10T17:32:42.642Z,8.51
2024-03-10T17:35:11.263Z,8.47
2024-03-10T17:37:39.337Z,8.45
2024-03-10T17:40:08.380Z,8.42
2024-03-10T17:42:37.622Z,8.43
2024-03-10T17:45:06.549Z,8.41
2024-03-10T17:47:36.917Z,8.41
2024-03-10T17:50:06.708Z,8.39
2024-03-10T17:52:34.953Z,8.39
2024-03-10T17:55:07.088Z,8.37
2024-03-10T17:57:35.091Z,8.36
2024-03-10T18:00:06.337Z,8.30
2024-03-10T18:02:35.459Z,8.24
2024-03-10T18:05:05.102Z,8.20
2024-03-10T18:07:33.488Z,8.15
2024-03-10T18:10:05.184Z,8.12
2024-03-10T18:12:33.532Z,8.09
2024-03-10T18:15:01.413Z,8.07
2024-03-10T18:17:30.962Z,8.03
2024-03-10T18:19:58.871Z,7.98
2024-03-10T18:22:26.708Z,7.95
2024-03-10T18:24:54.898Z,7.91
2024-03-10T18:27:23.114Z,7.87
2024-03-10T18:29:51.043Z,7.85
2024-03-10T18:32:18.951Z,7.84
2024-03-10T18:34:48.193Z,7.82
2024-03-10T18:37:16.113Z,7.79
2024-03-10T18:39:44.179Z,7.82
2024-03-10T18:42:12.075Z,7.80
2024-03-10T18:44:39.947Z,7.80
2024-03-10T18:47:07.861Z,7.78
2024-03-10T18:49:35.826Z,7.76
2024-03-10T18:52:05.898Z,7.73
2024-03-10T18:54:33.760Z,7.71
2024-03-10T18:57:03.364Z,7.66
2024-03-10T18:59:33.016Z,7.62
2024-03-10T19:02:00.984Z,7.63
2024-03-10T19:04:29.018Z,7.65
2024-03-10T19:06:56.849Z,7.66
2024-03-10T19:09:26.074Z,7.68
2024-03-10T19:11:55.190Z,7.68
2024-03-10T19:14:24.279Z,7.65
2024-03-10T19:16:52.808Z,7.62
2024-03-10T19:19:20.675Z,7.60
2024-03-10T19:21:49.156Z,7.59
2024-03-10T19:24:17.019Z,7.55
2024-03-10T19:26:46.377Z,7.51
2024-03-10T19:29:14.256Z,7.45
2024-03-10T19:31:44.710Z,7.42
2024-03-10T19:34:12.660Z,7.36
2024-03-10T19:36:41.390Z,7.36
2024-03-10T19:39:10.306Z,7.36
2024-03-10T19:41:38.363Z,7.34
2024-03-10T19:44:07.886Z,7.31
2024-03-10T19:46:35.963Z,7.28
2024-03-10T19:49:04.969Z,7.23
2024-03-10T19:51:33.653Z,7.20
2024-03-10T19:54:01.665Z,7.16
2024-03-10T19:56:29.534Z,7.12
2024-03-10T19:58:57.433Z,7.11
2024-03-10T20:01:27.755Z,7.07
2024-03-10T20:03:57.652Z,7.04
2024-03-10T20:06:25.892Z,7.00
2024-03-10T20:08:53.740Z,6.96
2024-03-10T20:11:21.680Z,6.92
2024-03-10T20:13:51.081Z,6.90
2024-03-10T20:16:18.907Z,6.89
2024-03-10T20:18:48.172Z,6.87
2024-03-10T20:21:16.036Z,6.86
2024-03-10T20:23:43.953Z,6.84
2024-03-10T20:26:14.270Z,6.82
2024-03-10T20:28:42.148Z,6.81
2024-03-10T20:31:09.996Z,6.79
2024-03-10T20:33:39.593Z,6.79
2024-03-10T20:36:09.832Z,6.79
2024-03-10T20:38:40.747Z,6.82
2024-03-10T20:41:10.110Z,6.85
2024-03-10T20:43:37.919Z,6.88
2024-03-10T20:46:05.961Z,6.90
2024-03-10T20:48:34.159Z,6.93
2024-03-10T20:51:02.577Z,6.93
2024-03-10T20:53:31.907Z,6.93
2024-03-10T20:56:00.166Z,6.93
2024-03-10T20:58:28.399Z,6.92
2024-03-10T21:00:56.418Z,6.94
2024-03-10T21:03:25.223Z,6.94
2024-03-10T21:05:53.259Z,6.92
2024-03-10T21:08:21.270Z,6.92
2024-03-10T21:10:51.417Z,6.91
2024-03-10T21:13:19.358Z,6.90
2024-03-10T21:15:47.301Z,6.88
2024-03-10T21:18:15.196Z,6.88
2024-03-10T21:20:43.634Z,6.86
2024-03-10T21:23:13.500Z,6.86
2024-03-10T21:25:41.812Z,6.85
2024-03-10T21:28:12.795Z,6.82
2024-03-10T21:30:41.436Z,6.81
2024-03-10T21:33:09.787Z,6.79
2024-03-10T21:35:39.563Z,6.76
2024-03-10T21:38:09.551Z,6.76
2024-03-10T21:40:38.761Z,6.73
2024-03-10T21:43:07.587Z,6.72
2024-03-10T21:45:39.493Z,6.72
2024-03-10T21:48:08.801Z,6.74
2024-03-10T21:50:37.846Z,6.74
2024-03-10T21:53:06.188Z,6.75
2024-03-10T21:55:34.189Z,6.75
2024-03-10T21:58:02.321Z,6.73
2024-03-10T22:00:32.898Z,6.71
2024-03-10T22:03:02.151Z,6.70
2024-03-10T22:05:31.539Z,6.67
2024-03-10T22:07:59.750Z,6.63
2024-03-10T22:10:27.612Z,6.60
2024-03-10T22:12:55.477Z,6.57
2024-03-10T22:15:23.434Z,6.55
2024-03-10T22:17:53.786Z,6.52
2024-03-10T22:20:25.718Z,6.49
2024-03-10T22:22:56.156Z,6.47
2024-03-10T22:25:26.571Z,6.42
2024-03-10T22:27:55.258Z,6.41
2024-03-10T22:30:26.893Z,6.36
2024-03-10T22:32:55.734Z,6.33
2024-03-10T22:35:28.154Z,6.28
2024-03-10T22:37:57.070Z,6.23
2024-03-10T22:40:25.486Z,6.20
2024-03-10T22:42:55.363Z,6.16
2024-03-10T22:45:30.308Z,6.13
2024-03-10T22:48:01.864Z,6.11
2024-03-10T22:50:31.831Z,6.08
2024-03-10T22:53:03.821Z,6.05
2024-03-10T22:55:33.355Z,6.03
2024-03-10T22:58:02.157Z,6.00
2024-03-10T23:00:38.797Z,5.98
2024-03-10T23:06:35.226Z,5.90
2024-03-10T23:09:05.793Z,5.87
2024-03-10T23:11:33.716Z,5.86
2024-03-10T23:14:01.683Z,5.81
2024-03-10T23:16:29.537Z,5.79
2024-03-10T23:18:57.323Z,5.76
2024-03-10T23:21:25.154Z,5.76
2024-03-10T23:23:54.290Z,5.76
2024-03-10T23:26:22.299Z,5.75
2024-03-10T23:28:50.156Z,5.76
2024-03-10T23:31:18.557Z,5.77
2024-03-10T23:33:46.375Z,5.79
2024-03-10T23:36:14.195Z,5.81
2024-03-10T23:38:43.358Z,5.81
2024-03-10T23:41:13.168Z,5.81
2024-03-10T23:43:42.085Z,5.80
2024-03-10T23:46:09.908Z,5.81
2024-03-10T23:48:37.807Z,5.80
2024-03-10T23:51:06.430Z,5.78
2024-03-10T23:53:35.011Z,5.78
2024-03-10T23:56:05.843Z,5.73
2024-03-10T23:58:37.795Z,5.71
